createdAt,value
2018-09-14T00:00:46.778Z,101636.79
2018-09-14T00:03:14.911Z,101632.65
2018-09-14T00:05:43.078Z,101632.06
2018-09-14T00:08:11.220Z,101630.36
2018-09-14T00:10:39.357Z,101623.70
2018-09-14T00:13:07.493Z,101631.67
2018-09-14T00:15:35.774Z,101626.83
2018-09-14T00:18:03.913Z,101621.22
2018-09-14T00:20:32.060Z,101626.84
2018-09-14T00:23:00.243Z,101621.97
2018-09-14T00:25:28.456Z,101621.91
2018-09-14T00:27:56.698Z,101615.06
2018-09-14T00:30:25.032Z,101619.09
2018-09-14T00:32:53.263Z,101617.94
2018-09-14T00:35:21.415Z,101620.59
2018-09-14T00:37:49.574Z,101614.23
2018-09-14T00:40:17.844Z,101610.63
2018-09-14T00:42:46.062Z,101613.30
2018-09-14T00:45:14.371Z,101605.85
2018-09-14T00:47:42.596Z,101613.11
2018-09-14T00:50:10.720Z,101605.93
2018-09-14T00:52:39.024Z,101614.13
2018-09-14T00:55:07.166Z,101613.67
2018-09-14T00:57:35.559Z,101613.04
2018-09-14T01:00:04.078Z,101610.09
2018-09-14T01:02:32.927Z,101612.03
2018-09-14T01:05:01.090Z,101613.86
2018-09-14T01:07:29.242Z,101612.96
2018-09-14T01:09:57.370Z,101607.98
2018-09-14T01:12:25.537Z,101611.43
2018-09-14T01:14:53.755Z,101608.11
2018-09-14T01:17:21.962Z,101608.52
2018-09-14T01:19:50.042Z,101606.94
2018-09-14T01:22:18.191Z,101613.79
2018-09-14T01:24:46.488Z,101606.14
2018-09-14T01:27:14.609Z,101609.58
2018-09-14T01:29:42.736Z,101609.35
2018-09-14T01:32:10.882Z,101607.11
2018-09-14T01:34:39.175Z,101612.16
2018-09-14T01:37:07.470Z,101613.11
2018-09-14T01:39:35.602Z,101612.53
2018-09-14T01:42:03.721Z,101617.67
2018-09-14T01:44:31.912Z,101614.52
2018-09-14T01:47:00.040Z,101612.16
2018-09-14T01:49:28.194Z,101612.10
2018-09-14T01:51:56.328Z,101610.16
2018-09-14T01:54:24.489Z,101605.11
2018-09-14T01:56:52.648Z,101607.05
2018-09-14T01:59:20.852Z,101605.93
2018-09-14T02:01:48.976Z,101605.63
2018-09-14T02:04:17.108Z,101601.33
2018-09-14T02:06:45.428Z,101593.47
2018-09-14T02:09:13.574Z,101594.16
2018-09-14T02:11:41.688Z,101599.27
2018-09-14T02:14:09.796Z,101594.46
2018-09-14T02:16:37.923Z,101592.80
2018-09-14T02:19:06.234Z,101597.25
2018-09-14T02:21:34.376Z,101596.91
2018-09-14T02:24:02.490Z,101595.14
2018-09-14T02:26:30.644Z,101595.34
2018-09-14T02:28:58.843Z,101594.48
2018-09-14T02:31:26.953Z,101592.47
2018-09-14T02:33:55.089Z,101595.72
2018-09-14T02:36:23.257Z,101593.84
2018-09-14T02:38:51.390Z,101594.22
2018-09-14T02:41:19.491Z,101597.51
2018-09-14T02:43:47.724Z,101599.72
2018-09-14T02:46:15.829Z,101591.41
2018-09-14T02:48:43.921Z,101591.73
2018-09-14T02:51:12.079Z,101589.73
2018-09-14T02:53:40.257Z,101589.59
2018-09-14T02:56:08.488Z,101586.23
2018-09-14T02:58:36.812Z,101590.96
2018-09-14T03:01:05.272Z,101586.60
2018-09-14T03:03:33.371Z,101584.26
2018-09-14T03:06:01.518Z,101583.81
2018-09-14T03:08:29.806Z,101584.30
2018-09-14T03:10:58.058Z,101582.84
2018-09-14T03:13:26.176Z,101585.03
2018-09-14T03:15:54.458Z,101586.09
2018-09-14T03:18:22.628Z,101590.41
2018-09-14T03:20:50.849Z,101587.95
2018-09-14T03:23:18.978Z,101587.71
2018-09-14T03:25:47.124Z,101585.97
2018-09-14T03:28:15.270Z,101587.28
2018-09-14T03:30:43.844Z,101589.41
2018-09-14T03:33:11.978Z,101590.33
2018-09-14T03:35:40.100Z,101592.87
2018-09-14T03:38:08.192Z,101583.20
2018-09-14T03:40:36.340Z,101583.91
2018-09-14T03:43:04.469Z,101583.33
2018-09-14T03:45:32.611Z,101589.00
2018-09-14T03:48:00.744Z,101590.98
2018-09-14T03:50:29.086Z,101592.27
2018-09-14T03:52:57.250Z,101586.83
2018-09-14T03:55:25.420Z,101593.08
2018-09-14T03:57:53.709Z,101588.48
2018-09-14T04:00:21.941Z,101599.57
2018-09-14T04:02:50.242Z,101596.23
2018-09-14T04:05:18.537Z,101599.34
2018-09-14T04:07:46.886Z,101598.08
2018-09-14T04:10:14.968Z,101595.96
2018-09-14T04:12:43.316Z,101591.23
2018-09-14T04:15:11.496Z,101588.91
2018-09-14T04:17:40.111Z,101595.30
2018-09-14T04:20:08.485Z,101594.89
2018-09-14T04:22:36.634Z,101600.69
2018-09-14T04:25:04.808Z,101600.31
2018-09-14T04:27:33.001Z,101588.61
2018-09-14T04:30:01.935Z,101592.39
2018-09-14T04:32:30.145Z,101590.97
2018-09-14T04:34:58.468Z,101595.88
2018-09-14T04:37:26.673Z,101597.70
2018-09-14T04:39:54.912Z,101593.21
2018-09-14T04:42:23.080Z,101596.77
2018-09-14T04:44:51.410Z,101595.64
2018-09-14T04:47:19.709Z,101593.83
2018-09-14T04:49:47.851Z,101593.72
2018-09-14T04:52:16.088Z,101591.34
2018-09-14T04:54:44.257Z,101597.45
2018-09-14T04:57:12.621Z,101597.40
2018-09-14T04:59:40.832Z,101594.62
2018-09-14T05:02:09.072Z,101598.93
2018-09-14T05:04:37.271Z,101595.28
2018-09-14T05:07:05.527Z,101598.20
2018-09-14T05:09:33.653Z,101601.06
2018-09-14T05:12:01.930Z,101610.73
2018-09-14T05:14:30.232Z,101604.14
2018-09-14T05:16:58.580Z,101603.70
2018-09-14T05:19:29.120Z,101608.24
2018-09-14T05:21:57.383Z,101614.55
2018-09-14T05:24:25.670Z,101616.22
2018-09-14T05:26:54.120Z,101610.48
2018-09-14T05:29:22.295Z,101612.61
2018-09-14T05:31:50.840Z,101615.78
2018-09-14T05:34:19.171Z,101616.09
2018-09-14T05:36:47.355Z,101616.79
2018-09-14T05:39:15.602Z,101613.29
2018-09-14T05:41:43.998Z,101609.48
2018-09-14T05:44:12.386Z,101615.64
2018-09-14T05:46:40.663Z,101615.03
2018-09-14T05:49:08.778Z,101615.88
2018-09-14T05:51:36.906Z,101617.31
2018-09-14T05:54:05.159Z,101613.59
2018-09-14T05:56:33.313Z,101615.59
2018-09-14T05:59:01.634Z,101619.95
2018-09-14T06:01:30.827Z,101619.97
2018-09-14T06:03:59.092Z,101628.58
2018-09-14T06:06:27.302Z,101630.58
2018-09-14T06:08:55.519Z,101632.34
2018-09-14T06:11:23.951Z,101630.29
2018-09-14T06:13:52.121Z,101635.42
2018-09-14T06:16:20.267Z,101634.63
2018-09-14T06:18:49.007Z,101632.44
2018-09-14T06:21:17.193Z,101641.73
2018-09-14T06:23:45.545Z,101638.73
2018-09-14T06:26:13.806Z,101634.95
2018-09-14T06:28:42.021Z,101635.33
2018-09-14T06:31:10.327Z,101641.73
2018-09-14T06:33:38.507Z,101642.98
2018-09-14T06:36:06.721Z,101639.28
2018-09-14T06:38:39.493Z,101641.19
2018-09-14T06:41:07.639Z,101639.38
2018-09-14T06:43:35.925Z,101637.91
2018-09-14T06:46:04.418Z,101638.17
2018-09-14T06:48:32.552Z,101639.35
2018-09-14T06:51:00.754Z,101637.61
2018-09-14T06:53:28.985Z,101639.36
2018-09-14T06:55:57.190Z,101641.72
2018-09-14T06:58:25.977Z,101650.16
2018-09-14T07:00:54.216Z,101647.33
2018-09-14T07:03:23.140Z,101641.09
2018-09-14T07:05:51.422Z,101646.67
2018-09-14T07:08:19.983Z,101644.52
2018-09-14T07:10:48.125Z,101648.38
2018-09-14T07:13:16.381Z,101650.77
2018-09-14T07:15:44.491Z,101659.14
2018-09-14T07:18:12.644Z,101656.74
2018-09-14T07:20:40.843Z,101656.84
2018-09-14T07:23:09.369Z,101660.59
2018-09-14T07:25:38.065Z,101654.84
2018-09-14T07:28:06.150Z,101653.69
2018-09-14T07:30:34.406Z,101663.55
2018-09-14T07:33:02.578Z,101663.94
2018-09-14T07:35:33.788Z,101662.73
2018-09-14T07:38:02.077Z,101664.30
2018-09-14T07:40:30.429Z,101661.70
2018-09-14T07:42:58.614Z,101669.34
2018-09-14T07:45:26.892Z,101665.80
2018-09-14T07:47:55.107Z,101666.67
2018-09-14T07:50:23.472Z,101671.05
2018-09-14T07:52:51.776Z,101674.31
2018-09-14T07:55:20.277Z,101677.81
2018-09-14T07:57:48.612Z,101674.80
2018-09-14T08:00:17.031Z,101675.23
2018-09-14T08:02:45.201Z,101671.88
2018-09-14T08:05:15.210Z,101669.44
2018-09-14T08:07:43.352Z,101675.00
2018-09-14T08:10:13.968Z,101676.00
2018-09-14T08:12:42.717Z,101684.20
2018-09-14T08:15:10.960Z,101679.77
2018-09-14T08:17:39.102Z,101684.50
2018-09-14T08:20:11.144Z,101687.13
2018-09-14T08:22:39.230Z,101685.41
2018-09-14T08:25:07.478Z,101686.13
2018-09-14T08:27:35.715Z,101685.77
2018-09-14T08:30:03.905Z,101681.62
2018-09-14T08:32:32.261Z,101686.01
2018-09-14T08:35:00.569Z,101687.87
2018-09-14T08:37:28.836Z,101680.20
2018-09-14T08:39:57.266Z,101684.49
2018-09-14T08:42:25.448Z,101689.00
2018-09-14T08:44:54.018Z,101688.53
2018-09-14T08:47:22.242Z,101686.66
2018-09-14T08:49:50.672Z,101684.34
2018-09-14T08:52:18.887Z,101689.77
2018-09-14T08:54:47.081Z,101686.92
2018-09-14T08:57:15.935Z,101686.22
2018-09-14T08:59:44.197Z,101687.05
2018-09-14T09:02:12.393Z,101681.17
2018-09-14T09:04:40.538Z,101683.66
2018-09-14T09:07:10.847Z,101686.23
2018-09-14T09:09:39.062Z,101683.17
2018-09-14T09:12:07.242Z,101682.05
2018-09-14T09:14:35.499Z,101681.11
2018-09-14T09:17:03.614Z,101688.77
2018-09-14T09:19:32.381Z,101687.14
2018-09-14T09:22:00.688Z,101685.85
2018-09-14T09:24:28.965Z,101676.28
2018-09-14T09:26:57.134Z,101682.27
2018-09-14T09:29:25.315Z,101681.55
2018-09-14T09:31:53.439Z,101681.63
2018-09-14T09:34:21.694Z,101679.66
2018-09-14T09:36:49.847Z,101683.63
2018-09-14T09:39:17.992Z,101676.23
2018-09-14T09:41:46.098Z,101681.89
2018-09-14T09:44:14.432Z,101682.72
2018-09-14T09:46:42.640Z,101677.19
2018-09-14T09:49:10.858Z,101676.64
2018-09-14T09:51:39.193Z,101679.28
2018-09-14T09:54:07.356Z,101675.84
2018-09-14T09:56:35.607Z,101677.56
2018-09-14T09:59:03.784Z,101676.34
2018-09-14T10:01:34.816Z,101681.06
2018-09-14T10:04:08.674Z,101673.61
2018-09-14T10:06:36.939Z,101675.44
2018-09-14T10:09:07.763Z,101675.23
2018-09-14T10:11:36.015Z,101671.72
2018-09-14T10:14:04.538Z,101669.22
2018-09-14T10:16:32.642Z,101672.27
2018-09-14T10:19:00.792Z,101669.87
2018-09-14T10:21:29.085Z,101668.31
2018-09-14T10:23:57.272Z,101671.76
2018-09-14T10:26:25.580Z,101674.69
2018-09-14T10:28:53.861Z,101678.17
2018-09-14T10:31:22.132Z,101678.17
2018-09-14T10:33:50.314Z,101669.12
2018-09-14T10:36:18.454Z,101673.64
2018-09-14T10:38:47.027Z,101673.55
2018-09-14T10:41:21.832Z,101675.03
2018-09-14T10:43:49.984Z,101674.62
2018-09-14T10:46:18.261Z,101669.53
2018-09-14T10:48:46.675Z,101673.70
2018-09-14T10:51:14.859Z,101673.61
2018-09-14T10:53:43.030Z,101668.75
2018-09-14T10:56:12.133Z,101670.13
2018-09-14T10:58:42.362Z,101669.16
2018-09-14T11:01:12.097Z,101673.87
2018-09-14T11:03:40.371Z,101661.07
2018-09-14T11:06:09.209Z,101666.21
2018-09-14T11:08:37.337Z,101666.38
2018-09-14T11:11:05.868Z,101660.92
2018-09-14T11:13:34.028Z,101659.20
2018-09-14T11:16:02.267Z,101663.70
2018-09-14T11:18:30.475Z,101659.14
2018-09-14T11:20:58.695Z,101661.78
2018-09-14T11:23:26.837Z,101659.16
2018-09-14T11:25:55.020Z,101654.13
2018-09-14T11:28:23.428Z,101648.91
2018-09-14T11:30:51.595Z,101652.33
2018-09-14T11:33:19.904Z,101652.37
2018-09-14T11:35:48.152Z,101647.14
2018-09-14T11:38:16.315Z,101648.05
2018-09-14T11:40:44.497Z,101657.51
2018-09-14T11:43:12.657Z,101643.63
2018-09-14T11:45:40.845Z,101643.34
2018-09-14T11:48:09.424Z,101642.42
2018-09-14T11:50:38.072Z,101639.31
2018-09-14T11:53:06.442Z,101641.47
2018-09-14T11:55:34.565Z,101634.61
2018-09-14T11:58:02.692Z,101627.28
2018-09-14T12:00:31.053Z,101628.11
2018-09-14T12:02:59.217Z,101624.67
2018-09-14T12:05:27.404Z,101619.45
2018-09-14T12:07:55.662Z,101618.52
2018-09-14T12:10:23.858Z,101619.89
2018-09-14T12:12:52.020Z,101619.81
2018-09-14T12:15:20.195Z,101616.27
2018-09-14T12:17:48.355Z,101616.39
2018-09-14T12:20:16.588Z,101610.96
2018-09-14T12:22:44.837Z,101611.88
2018-09-14T12:25:13.087Z,101608.00
2018-09-14T12:27:41.469Z,101609.02
2018-09-14T12:30:09.644Z,101613.92
2018-09-14T12:32:37.890Z,101620.78
2018-09-14T12:35:06.084Z,101619.50
2018-09-14T12:37:34.258Z,101613.81
2018-09-14T12:40:02.474Z,101615.76
2018-09-14T12:42:30.739Z,101609.66
2018-09-14T12:44:58.974Z,101607.91
2018-09-14T12:47:27.224Z,101607.31
2018-09-14T12:49:55.452Z,101604.19
2018-09-14T12:52:23.719Z,101595.52
2018-09-14T12:54:51.924Z,101596.88
2018-09-14T12:57:20.125Z,101591.12
2018-09-14T12:59:48.328Z,101587.70
2018-09-14T13:02:16.850Z,101583.66
2018-09-14T13:04:45.189Z,101582.11
2018-09-14T13:07:13.412Z,101581.16
2018-09-14T13:09:41.593Z,101578.28
2018-09-14T13:12:09.914Z,101581.81
2018-09-14T13:14:38.163Z,101587.49
2018-09-14T13:17:10.615Z,101584.40
2018-09-14T13:19:39.058Z,101573.06
2018-09-14T13:22:07.442Z,101580.16
2018-09-14T13:24:35.588Z,101577.72
2018-09-14T13:27:03.900Z,101574.27
2018-09-14T13:29:32.076Z,101567.27
2018-09-14T13:32:00.293Z,101568.16
2018-09-14T13:34:28.497Z,101564.84
2018-09-14T13:36:56.836Z,101561.75
2018-09-14T13:39:25.049Z,101560.00
2018-09-14T13:41:53.326Z,101559.55
2018-09-14T13:44:21.620Z,101554.71
2018-09-14T13:46:50.190Z,101553.13
2018-09-14T13:49:18.429Z,101559.75
2018-09-14T13:51:46.544Z,101558.43
2018-09-14T13:54:14.682Z,101550.95
2018-09-14T13:56:42.882Z,101549.16
2018-09-14T13:59:11.209Z,101550.55
2018-09-14T14:01:39.447Z,101554.02
2018-09-14T14:04:07.641Z,101548.73
2018-09-14T14:06:35.811Z,101546.17
2018-09-14T14:09:05.894Z,101543.97
2018-09-14T14:11:34.169Z,101543.54
2018-09-14T14:14:02.408Z,101543.94
2018-09-14T14:16:31.155Z,101537.25
2018-09-14T14:18:59.315Z,101535.58
2018-09-14T14:21:27.738Z,101536.95
2018-09-14T14:23:56.006Z,101532.58
2018-09-14T14:26:24.951Z,101531.68
2018-09-14T14:28:53.130Z,101529.46
2018-09-14T14:31:21.342Z,101521.98
2018-09-14T14:33:49.540Z,101521.96
2018-09-14T14:36:17.796Z,101516.28
2018-09-14T14:38:46.174Z,101517.98
2018-09-14T14:41:14.422Z,101516.16
2018-09-14T14:43:42.816Z,101516.17
2018-09-14T14:46:11.126Z,101508.28
2018-09-14T14:48:39.363Z,101502.08
2018-09-14T14:51:07.758Z,101511.33
2018-09-14T14:53:35.899Z,101497.30
2018-09-14T14:56:04.190Z,101497.28
2018-09-14T14:58:32.379Z,101497.71
2018-09-14T15:01:00.862Z,101495.95
2018-09-14T15:03:29.380Z,101497.63
2018-09-14T15:05:57.601Z,101494.92
2018-09-14T15:08:26.464Z,101488.84
2018-09-14T15:10:54.682Z,101487.09
2018-09-14T15:13:22.834Z,101493.66
2018-09-14T15:15:51.028Z,101495.02
2018-09-14T15:18:19.276Z,101491.05
2018-09-14T15:20:47.379Z,101489.33
2018-09-14T15:23:15.503Z,101483.17
2018-09-14T15:25:43.712Z,101487.91
2018-09-14T15:28:11.968Z,101487.11
2018-09-14T15:30:40.263Z,101489.80
2018-09-14T15:33:08.442Z,101486.30
2018-09-14T15:35:39.598Z,101484.51
2018-09-14T15:38:08.026Z,101486.27
2018-09-14T15:40:36.183Z,101479.65
2018-09-14T15:43:04.373Z,101483.55
2018-09-14T15:45:32.576Z,101482.67
2018-09-14T15:48:00.973Z,101478.74
2018-09-14T15:50:29.285Z,101476.12
2018-09-14T15:52:57.530Z,101479.52
2018-09-14T15:55:25.856Z,101471.16
2018-09-14T15:57:54.035Z,101479.91
2018-09-14T16:00:22.808Z,101475.92
2018-09-14T16:02:52.092Z,101476.38
2018-09-14T16:05:20.348Z,101471.94
2018-09-14T16:07:48.663Z,101471.53
2018-09-14T16:10:17.145Z,101474.49
2018-09-14T16:12:45.367Z,101471.85
2018-09-14T16:15:13.540Z,101474.80
2018-09-14T16:17:41.678Z,101477.88
2018-09-14T16:20:09.860Z,101475.23
2018-09-14T16:22:38.022Z,101478.84
2018-09-14T16:25:06.554Z,101478.81
2018-09-14T16:27:34.814Z,101482.77
2018-09-14T16:30:03.185Z,101482.75
2018-09-14T16:32:31.750Z,101477.81
2018-09-14T16:35:00.080Z,101479.98
2018-09-14T16:37:29.097Z,101483.42
2018-09-14T16:39:57.418Z,101477.79
2018-09-14T16:42:25.660Z,101479.93
2018-09-14T16:44:54.493Z,101485.66
2018-09-14T16:47:22.785Z,101482.53
2018-09-14T16:49:51.004Z,101478.91
2018-09-14T16:52:19.224Z,101479.25
2018-09-14T16:54:47.840Z,101478.70
2018-09-14T16:57:16.037Z,101479.09
2018-09-14T16:59:44.510Z,101476.45
2018-09-14T17:02:12.730Z,101480.92
2018-09-14T17:04:40.877Z,101481.27
2018-09-14T17:07:09.248Z,101478.59
2018-09-14T17:09:37.415Z,101481.77
2018-09-14T17:12:05.681Z,101487.43
2018-09-14T17:14:33.904Z,101480.35
2018-09-14T17:17:02.086Z,101481.70
2018-09-14T17:19:30.284Z,101476.38
2018-09-14T17:21:58.651Z,101481.95
2018-09-14T17:24:26.851Z,101481.50
2018-09-14T17:26:55.259Z,101481.91
2018-09-14T17:29:23.584Z,101475.27
2018-09-14T17:31:51.905Z,101480.05
2018-09-14T17:34:20.152Z,101476.88
2018-09-14T17:36:48.353Z,101480.23
2018-09-14T17:39:16.603Z,101488.16
2018-09-14T17:41:44.806Z,101482.06
2018-09-14T17:44:13.032Z,101484.20
2018-09-14T17:46:41.329Z,101488.02
2018-09-14T17:49:09.596Z,101490.91
2018-09-14T17:51:37.797Z,101493.45
2018-09-14T17:54:06.248Z,101495.33
2018-09-14T17:56:34.507Z,101497.18
2018-09-14T17:59:02.728Z,101496.65
2018-09-14T18:01:30.964Z,101497.09
2018-09-14T18:03:59.341Z,101500.69
2018-09-14T18:06:27.620Z,101501.98
2018-09-14T18:08:55.818Z,101503.48
2018-09-14T18:11:23.989Z,101502.61
2018-09-14T18:13:52.193Z,101498.31
2018-09-14T18:16:20.662Z,101498.22
2018-09-14T18:18:48.813Z,101499.09
2018-09-14T18:21:16.998Z,101500.73
2018-09-14T18:23:45.274Z,101503.13
2018-09-14T18:26:13.462Z,101502.25
2018-09-14T18:28:41.817Z,101504.50
2018-09-14T18:31:10.407Z,101500.08
2018-09-14T18:33:41.112Z,101504.10
2018-09-14T18:36:13.914Z,101509.62
2018-09-14T18:38:42.656Z,101504.91
2018-09-14T18:41:12.257Z,101503.33
2018-09-14T18:43:41.380Z,101501.69
2018-09-14T18:46:10.288Z,101499.56
2018-09-14T18:48:38.866Z,101502.98
2018-09-14T18:51:07.850Z,101497.17
2018-09-14T18:53:36.329Z,101499.13
2018-09-14T18:56:05.036Z,101495.03
2018-09-14T18:58:33.675Z,101496.86
2018-09-14T19:01:02.293Z,101499.25
2018-09-14T19:03:31.112Z,101500.04
2018-09-14T19:05:59.847Z,101499.96
2018-09-14T19:08:28.458Z,101502.42
2018-09-14T19:10:57.037Z,101497.08
2018-09-14T19:13:25.555Z,101502.58
2018-09-14T19:15:54.105Z,101500.62
2018-09-14T19:18:22.789Z,101493.66
2018-09-14T19:20:51.377Z,101490.98
2018-09-14T19:23:26.588Z,101494.77
2018-09-14T19:25:55.122Z,101498.09
2018-09-14T19:28:24.258Z,101498.43
2018-09-14T19:30:53.591Z,101496.72
2018-09-14T19:33:22.176Z,101507.97
2018-09-14T19:35:50.836Z,101511.52
2018-09-14T19:38:19.453Z,101509.23
2018-09-14T19:40:47.973Z,101503.20
2018-09-14T19:43:16.582Z,101505.99
2018-09-14T19:45:52.284Z,101509.48
2018-09-14T19:48:21.052Z,101513.09
2018-09-14T19:50:49.635Z,101507.98
2018-09-14T19:53:18.216Z,101511.53
2018-09-14T19:55:46.737Z,101511.55
2018-09-14T19:58:15.319Z,101508.34
2018-09-14T20:00:43.907Z,101502.66
2018-09-14T20:03:12.760Z,101506.70
2018-09-14T20:05:41.280Z,101505.82
2018-09-14T20:08:09.806Z,101500.85
2018-09-14T20:10:44.999Z,101500.31
2018-09-14T20:13:13.586Z,101503.73
2018-09-14T20:15:42.078Z,101503.43
2018-09-14T20:18:10.627Z,101508.53
2018-09-14T20:20:39.058Z,101511.05
2018-09-14T20:23:07.523Z,101510.56
2018-09-14T20:25:35.857Z,101511.14
2018-09-14T20:28:04.229Z,101517.89
2018-09-14T20:30:32.445Z,101517.66
2018-09-14T20:33:00.762Z,101509.40
2018-09-14T20:35:29.159Z,101509.02
2018-09-14T20:37:57.383Z,101512.27
2018-09-14T20:40:25.656Z,101510.17
2018-09-14T20:42:53.914Z,101506.78
2018-09-14T20:45:22.198Z,101494.11
2018-09-14T20:47:50.496Z,101499.72
2018-09-14T20:50:18.960Z,101495.64
2018-09-14T20:52:47.240Z,101498.91
2018-09-14T20:55:15.497Z,101497.41
2018-09-14T20:57:43.786Z,101495.67
2018-09-14T21:00:12.286Z,101496.46
2018-09-14T21:02:40.469Z,101503.84
2018-09-14T21:05:08.853Z,101502.58
2018-09-14T21:07:37.174Z,101500.83
2018-09-14T21:10:05.361Z,101496.46
2018-09-14T21:12:33.691Z,101502.40
2018-09-14T21:15:02.081Z,101506.39
2018-09-14T21:17:30.958Z,101497.58
2018-09-14T21:20:03.221Z,101500.50
2018-09-14T21:22:31.940Z,101496.95
2018-09-14T21:25:01.145Z,101504.65
2018-09-14T21:27:29.342Z,101502.94
2018-09-14T21:29:57.466Z,101497.20
2018-09-14T21:32:25.658Z,101500.46
2018-09-14T21:34:53.812Z,101502.94
2018-09-14T21:37:22.095Z,101495.55
2018-09-14T21:39:50.321Z,101494.67
2018-09-14T21:42:18.567Z,101495.12
2018-09-14T21:44:46.787Z,101490.17
2018-09-14T21:47:15.972Z,101488.66
2018-09-14T21:49:44.152Z,101492.84
2018-09-14T21:52:12.436Z,101490.26
2018-09-14T21:54:40.648Z,101489.52
2018-09-14T21:57:08.893Z,101494.77
2018-09-14T21:59:37.068Z,101485.20
2018-09-14T22:02:05.415Z,101487.69
2018-09-14T22:04:33.592Z,101490.56
2018-09-14T22:07:01.773Z,101487.49
2018-09-14T22:09:30.029Z,101486.80
2018-09-14T22:11:58.429Z,101474.55
2018-09-14T22:14:26.718Z,101477.27
2018-09-14T22:16:54.983Z,101476.41
2018-09-14T22:19:23.121Z,101479.03
2018-09-14T22:21:51.372Z,101483.97
2018-09-14T22:24:19.616Z,101483.97
2018-09-14T22:26:47.876Z,101484.22
2018-09-14T22:29:16.055Z,101480.34
2018-09-14T22:31:44.301Z,101473.33
2018-09-14T22:34:12.528Z,101474.30
2018-09-14T22:36:40.793Z,101473.36
2018-09-14T22:39:10.416Z,101478.73
2018-09-14T22:41:38.549Z,101468.95
2018-09-14T22:44:06.879Z,101475.27
2018-09-14T22:46:34.987Z,101477.10
2018-09-14T22:49:03.405Z,101474.78
2018-09-14T22:51:31.651Z,101465.39
2018-09-14T22:53:59.810Z,101471.47
2018-09-14T22:56:27.960Z,101467.80
2018-09-14T22:58:56.122Z,101467.87
2018-09-14T23:01:24.417Z,101468.08
2018-09-14T23:03:53.538Z,101467.95
2018-09-14T23:06:21.704Z,101463.70
2018-09-14T23:08:49.897Z,101467.16
2018-09-14T23:11:18.113Z,101469.73
2018-09-14T23:13:46.335Z,101456.94
2018-09-14T23:16:14.623Z,101456.80
2018-09-14T23:18:42.917Z,101454.70
2018-09-14T23:21:11.157Z,101456.32
2018-09-14T23:23:39.314Z,101451.90
2018-09-14T23:26:11.955Z,101453.25
2018-09-14T23:28:40.094Z,101455.92
2018-09-14T23:31:08.227Z,101456.09
2018-09-14T23:33:36.438Z,101451.73
2018-09-14T23:36:04.572Z,101447.88
2018-09-14T23:38:32.725Z,101445.43
2018-09-14T23:41:00.960Z,101450.86
2018-09-14T23:43:29.245Z,101448.19
2018-09-14T23:45:57.465Z,101449.20
2018-09-14T23:48:25.732Z,101445.78
2018-09-14T23:50:54.127Z,101449.45
2018-09-14T23:53:22.409Z,101451.77
2018-09-14T23:55:50.563Z,101446.39
2018-09-14T23:58:18.728Z,101454.52
